Alligator, MS

2:36 AM CDT on September 01, 2014 (GMT -0500)
Clarksdale | Change Station
CLOSE
Current Station
Personal Weather Station
Location: Clarksdale, MS
Elevation: 164 ft
Nearby Weather Stations

Elev 164 ft 34.10 °N, 90.61 °W | Updated 4 seconds ago

Clear
Clear
76.6 °F
Feels Like 77 °F
N
0.0
Wind Variable Wind from South
Gusts 2.0 mph

Today
High -- | Low -- °F
--% Chance of Precip.
Yesterday
High -- | Low -- °F
Precip. -- in
6:36 AM 7:28 PM
Waxing Crescent, 38% visible
Pressure 30.01 in
Visibility 9.0 miles
Clouds Clear
Heat Index 77 °F
Dew Point 76 °F
Humidity 97%
Rainfall 0.00 in
Snow Depth Not available.
UV 0 out of 12
Pollen 6.40 out of 12
Air Quality Not available.
Flu Activity Not available.
METAR KCKM 010715Z AUTO 00000KT 9SM CLR 24/24 A3001 RMK AO1

More Conditions Fewer Conditions

Pressure 30.01 in
Visibility 9.0 miles
Clouds Clear
Heat Index 77 °F
Dew Point 76 °F
Humidity 97%
Rainfall 0.00 in
Snow Depth Not available.
UV 0 out of 12
Pollen 6.40 out of 12
Air Quality Not available.
Flu Activity Not available.
METAR KCKM 010715Z AUTO 00000KT 9SM CLR 24/24 A3001 RMK AO1

More Conditions Fewer Conditions

10-Day Weather Forecast

Almanac

Astronomy

Sep. 01, 2014 Rise Set
Actual Time 6:36 AM CDT 7:28 PM CDT
Civil Twilight 6:11 AM CDT 7:54 PM CDT
Nautical Twilight 5:40 AM CDT 8:24 PM CDT
Astronomical Twilight 5:09 AM CDT 8:55 PM CDT
Moon 1:04 PM CDT 11:48 PM CDT
Length of Visible Light 13h 43m
Length of Day
12h 52m
Tomorrow will be 2m 3s shorter.
Waxing Crescent, 38% of the Moon is Illuminated
Today
Waxing Crescent
Sep 2
First Quarter
Sep 8
Full
Sep 15
Last Quarter
Sep 24
New

Today's Extremes

State Highs State Lows

Community

WunderPhotos

Upload Photos

1,749,154 photos uploaded!

Nearby

Snow Depth

Station Depth Elevation
No new snow has been reported.

Earthquake Activity

City Distance Mag. Time & Date
No recent earthquake activity has been reported nearby.
Minimum magnitude displayed is 2.5.

Coastal Water Temperatures

Place Temperature
No Stations Reporting

Nearby Weather Stations